EWG20L EDDS-LIPZ
Flight info
| Callsign | EWG20L |
|---|---|
| Flight time | 0h 48m |
| Altitude | 31000 |
| Route | TEDGO L607 UTABA M738 NATAG DCT ALBET |
| Aircraft | A20N/M-VGDW/C |
Departure
| Time | 2026-05-06 07:15 |
|---|---|
| Airport | Stuttgart Airport (EDDS) |
Arrival
| Time | 2026-05-06 08:03 |
|---|---|
| Airport | Venice Marco Polo Airport (LIPZ) |
| Time | Latitude | Longitude | Altitude | Speed | Heading |
|---|---|---|---|---|---|
| 2026-05-06 06:59 | 48.68727 | 9.19331 | 1316 ft | 0 kts | 163° |
| 2026-05-06 07:11 | 48.68719 | 9.19334 | 1315 ft | 4 kts | 162° |
| 2026-05-06 07:12 | 48.68684 | 9.19356 | 1314 ft | 6 kts | 135° |
| 2026-05-06 07:12 | 48.68679 | 9.19426 | 1311 ft | 8 kts | 77° |
| 2026-05-06 07:12 | 48.68695 | 9.19518 | 1309 ft | 10 kts | 74° |
| 2026-05-06 07:12 | 48.68717 | 9.19633 | 1305 ft | 12 kts | 74° |
| 2026-05-06 07:13 | 48.68742 | 9.19770 | 1302 ft | 15 kts | 74° |
| 2026-05-06 07:13 | 48.68758 | 9.19923 | 1297 ft | 14 kts | 121° |
| 2026-05-06 07:13 | 48.68664 | 9.19994 | 1290 ft | 17 kts | 165° |
| 2026-05-06 07:13 | 48.68597 | 9.20138 | 1285 ft | 18 kts | 79° |
| 2026-05-06 07:14 | 48.68660 | 9.20460 | 1279 ft | 62 kts | 74° |
| 2026-05-06 07:14 | 48.68843 | 9.21448 | 1258 ft | 134 kts | 74° |
| 2026-05-06 07:14 | 48.69159 | 9.23113 | 1286 ft | 186 kts | 75° |
| 2026-05-06 07:14 | 48.69515 | 9.25039 | 1845 ft | 188 kts | 75° |
| 2026-05-06 07:15 | 48.69790 | 9.26909 | 2786 ft | 179 kts | 86° |
| 2026-05-06 07:15 | 48.69639 | 9.28867 | 3197 ft | 203 kts | 114° |
| 2026-05-06 07:15 | 48.68793 | 9.30751 | 3520 ft | 229 kts | 136° |
| 2026-05-06 07:15 | 48.67446 | 9.32137 | 4147 ft | 240 kts | 161° |
| 2026-05-06 07:16 | 48.65801 | 9.32472 | 4941 ft | 241 kts | 189° |
| 2026-05-06 07:16 | 48.64254 | 9.31589 | 5771 ft | 239 kts | 217° |
| 2026-05-06 07:16 | 48.63126 | 9.29769 | 6605 ft | 238 kts | 232° |
| 2026-05-06 07:16 | 48.61990 | 9.27995 | 7351 ft | 240 kts | 214° |
| 2026-05-06 07:17 | 48.60417 | 9.27154 | 8073 ft | 245 kts | 184° |
| 2026-05-06 07:17 | 48.58663 | 9.27399 | 8582 ft | 263 kts | 171° |
| 2026-05-06 07:17 | 48.56856 | 9.28168 | 9194 ft | 274 kts | 163° |
| 2026-05-06 07:17 | 48.55064 | 9.29217 | 9953 ft | 279 kts | 160° |
| 2026-05-06 07:18 | 48.53223 | 9.30391 | 10356 ft | 297 kts | 159° |
| 2026-05-06 07:18 | 48.51250 | 9.31645 | 10639 ft | 318 kts | 160° |
| 2026-05-06 07:18 | 48.49139 | 9.32937 | 10940 ft | 337 kts | 160° |
| 2026-05-06 07:18 | 48.46920 | 9.34243 | 11231 ft | 356 kts | 161° |
| 2026-05-06 07:19 | 48.44552 | 9.35594 | 11547 ft | 372 kts | 161° |
| 2026-05-06 07:19 | 48.42091 | 9.36971 | 12101 ft | 380 kts | 161° |
| 2026-05-06 07:19 | 48.39588 | 9.38361 | 12811 ft | 384 kts | 161° |
| 2026-05-06 07:19 | 48.37065 | 9.39759 | 13541 ft | 387 kts | 161° |
| 2026-05-06 07:20 | 48.34516 | 9.41170 | 14167 ft | 391 kts | 161° |
| 2026-05-06 07:20 | 48.31949 | 9.42591 | 14726 ft | 396 kts | 161° |
| 2026-05-06 07:20 | 48.29375 | 9.44016 | 15296 ft | 401 kts | 161° |
| 2026-05-06 07:20 | 48.26741 | 9.45472 | 15892 ft | 405 kts | 162° |
| 2026-05-06 07:21 | 48.24053 | 9.46861 | 16431 ft | 410 kts | 164° |
| 2026-05-06 07:21 | 48.21305 | 9.48125 | 17001 ft | 414 kts | 165° |
| 2026-05-06 07:21 | 48.18520 | 9.49325 | 17576 ft | 418 kts | 166° |
| 2026-05-06 07:21 | 48.15739 | 9.50495 | 18120 ft | 422 kts | 166° |
| 2026-05-06 07:22 | 48.12901 | 9.51686 | 18626 ft | 425 kts | 166° |
| 2026-05-06 07:22 | 48.10047 | 9.52892 | 19198 ft | 426 kts | 166° |
| 2026-05-06 07:22 | 48.07184 | 9.54112 | 19769 ft | 428 kts | 166° |
| 2026-05-06 07:22 | 48.04338 | 9.55447 | 20318 ft | 431 kts | 162° |
| 2026-05-06 07:23 | 48.01588 | 9.57271 | 20899 ft | 434 kts | 155° |
| 2026-05-06 07:23 | 47.98977 | 9.59606 | 21451 ft | 438 kts | 150° |
| 2026-05-06 07:23 | 47.96440 | 9.62151 | 21962 ft | 441 kts | 149° |
| 2026-05-06 07:23 | 47.93930 | 9.64824 | 22468 ft | 444 kts | 148° |
| 2026-05-06 07:24 | 47.91432 | 9.67559 | 22992 ft | 447 kts | 148° |
| 2026-05-06 07:24 | 47.88923 | 9.70321 | 23481 ft | 449 kts | 148° |
| 2026-05-06 07:24 | 47.86399 | 9.73091 | 23889 ft | 452 kts | 148° |
| 2026-05-06 07:24 | 47.83858 | 9.75859 | 24351 ft | 452 kts | 148° |
| 2026-05-06 07:25 | 47.81322 | 9.78606 | 24889 ft | 450 kts | 148° |
| 2026-05-06 07:25 | 47.78823 | 9.81300 | 25494 ft | 446 kts | 149° |
| 2026-05-06 07:25 | 47.76315 | 9.83996 | 26086 ft | 444 kts | 149° |
| 2026-05-06 07:25 | 47.73813 | 9.86675 | 26585 ft | 443 kts | 150° |
| 2026-05-06 07:26 | 47.71316 | 9.89343 | 27078 ft | 442 kts | 150° |
| 2026-05-06 07:26 | 47.68827 | 9.92001 | 27592 ft | 440 kts | 150° |
| 2026-05-06 07:26 | 47.66347 | 9.94646 | 28091 ft | 439 kts | 151° |
| 2026-05-06 07:26 | 47.63874 | 9.97280 | 28585 ft | 437 kts | 151° |
| 2026-05-06 07:27 | 47.61404 | 9.99909 | 29056 ft | 436 kts | 151° |
| 2026-05-06 07:27 | 47.58943 | 10.02524 | 29499 ft | 435 kts | 152° |
| 2026-05-06 07:27 | 47.56484 | 10.05135 | 29944 ft | 434 kts | 152° |
| 2026-05-06 07:27 | 47.54033 | 10.07734 | 30267 ft | 433 kts | 152° |
| 2026-05-06 07:28 | 47.51570 | 10.10342 | 30511 ft | 435 kts | 152° |
| 2026-05-06 07:28 | 47.49103 | 10.12948 | 30705 ft | 437 kts | 152° |
| 2026-05-06 07:28 | 47.44162 | 10.18160 | 30824 ft | 437 kts | 153° |
| 2026-05-06 07:29 | 47.39082 | 10.23000 | 30799 ft | 432 kts | 156° |
| 2026-05-06 07:29 | 47.33942 | 10.27609 | 30806 ft | 432 kts | 156° |
| 2026-05-06 07:30 | 47.28833 | 10.32167 | 30812 ft | 433 kts | 156° |
| 2026-05-06 07:30 | 47.23685 | 10.36774 | 30817 ft | 433 kts | 156° |
| 2026-05-06 07:31 | 47.18523 | 10.41395 | 30816 ft | 434 kts | 156° |
| 2026-05-06 07:31 | 47.13371 | 10.46018 | 30830 ft | 433 kts | 156° |
| 2026-05-06 07:32 | 47.08228 | 10.50614 | 30820 ft | 433 kts | 157° |
| 2026-05-06 07:32 | 47.02809 | 10.54134 | 30843 ft | 422 kts | 168° |
| 2026-05-06 07:33 | 46.97235 | 10.56795 | 30865 ft | 421 kts | 169° |
| 2026-05-06 07:33 | 46.91663 | 10.59278 | 30862 ft | 419 kts | 169° |
| 2026-05-06 07:34 | 46.86082 | 10.61843 | 30869 ft | 423 kts | 165° |
| 2026-05-06 07:34 | 46.80636 | 10.65195 | 30879 ft | 425 kts | 164° |
| 2026-05-06 07:35 | 46.75226 | 10.68625 | 30905 ft | 426 kts | 163° |
| 2026-05-06 07:35 | 46.69765 | 10.72099 | 30867 ft | 426 kts | 163° |
| 2026-05-06 07:36 | 46.67053 | 10.73824 | 30351 ft | 424 kts | 163° |
| 2026-05-06 07:36 | 46.64348 | 10.75543 | 29780 ft | 422 kts | 163° |
| 2026-05-06 07:36 | 46.61659 | 10.77248 | 29065 ft | 422 kts | 163° |
| 2026-05-06 07:36 | 46.59002 | 10.78929 | 28223 ft | 423 kts | 163° |
| 2026-05-06 07:37 | 46.56295 | 10.80640 | 27409 ft | 425 kts | 163° |
| 2026-05-06 07:37 | 46.53567 | 10.82361 | 26591 ft | 428 kts | 162° |
| 2026-05-06 07:37 | 46.50828 | 10.84089 | 25826 ft | 430 kts | 162° |
| 2026-05-06 07:37 | 46.48080 | 10.85822 | 25038 ft | 431 kts | 162° |
| 2026-05-06 07:38 | 46.45326 | 10.87556 | 24245 ft | 433 kts | 162° |
| 2026-05-06 07:38 | 46.42550 | 10.89302 | 23395 ft | 435 kts | 161° |
| 2026-05-06 07:38 | 46.39765 | 10.91056 | 22453 ft | 435 kts | 161° |
| 2026-05-06 07:38 | 46.36997 | 10.92801 | 21710 ft | 432 kts | 161° |
| 2026-05-06 07:39 | 46.34248 | 10.94529 | 21009 ft | 428 kts | 161° |
| 2026-05-06 07:39 | 46.31531 | 10.96234 | 20317 ft | 423 kts | 161° |
| 2026-05-06 07:39 | 46.28870 | 10.97899 | 19664 ft | 420 kts | 161° |
| 2026-05-06 07:39 | 46.26197 | 10.99569 | 19005 ft | 416 kts | 161° |
| 2026-05-06 07:40 | 46.23553 | 11.01219 | 18288 ft | 412 kts | 161° |
| 2026-05-06 07:40 | 46.20929 | 11.02855 | 17526 ft | 408 kts | 160° |
| 2026-05-06 07:40 | 46.18330 | 11.04476 | 16793 ft | 404 kts | 160° |
| 2026-05-06 07:40 | 46.15757 | 11.06075 | 16039 ft | 401 kts | 160° |
| 2026-05-06 07:41 | 46.13217 | 11.07654 | 15343 ft | 396 kts | 160° |
| 2026-05-06 07:41 | 46.10730 | 11.09198 | 14635 ft | 393 kts | 160° |
| 2026-05-06 07:41 | 46.08219 | 11.10757 | 13929 ft | 391 kts | 160° |
| 2026-05-06 07:41 | 46.05725 | 11.12305 | 13193 ft | 388 kts | 160° |
| 2026-05-06 07:42 | 46.03258 | 11.13834 | 12490 ft | 384 kts | 159° |
| 2026-05-06 07:42 | 46.00804 | 11.15353 | 11727 ft | 381 kts | 159° |
| 2026-05-06 07:42 | 45.98381 | 11.16851 | 10970 ft | 378 kts | 159° |
| 2026-05-06 07:42 | 45.95982 | 11.18336 | 10562 ft | 369 kts | 159° |
| 2026-05-06 07:43 | 45.93669 | 11.19766 | 10362 ft | 354 kts | 159° |
| 2026-05-06 07:43 | 45.91450 | 11.21143 | 10219 ft | 340 kts | 159° |
| 2026-05-06 07:43 | 45.89343 | 11.22446 | 10015 ft | 327 kts | 159° |
| 2026-05-06 07:43 | 45.87293 | 11.23703 | 9852 ft | 314 kts | 159° |
| 2026-05-06 07:44 | 45.85331 | 11.24906 | 9674 ft | 301 kts | 159° |
| 2026-05-06 07:44 | 45.83444 | 11.26066 | 9547 ft | 289 kts | 159° |
| 2026-05-06 07:44 | 45.81631 | 11.27178 | 9392 ft | 277 kts | 159° |
| 2026-05-06 07:44 | 45.79880 | 11.28251 | 9117 ft | 271 kts | 159° |
| 2026-05-06 07:45 | 45.78162 | 11.29304 | 8943 ft | 266 kts | 159° |
| 2026-05-06 07:45 | 45.76455 | 11.30349 | 8951 ft | 268 kts | 159° |
| 2026-05-06 07:45 | 45.74734 | 11.31402 | 8929 ft | 269 kts | 159° |
| 2026-05-06 07:45 | 45.73010 | 11.32456 | 8927 ft | 269 kts | 159° |
| 2026-05-06 07:46 | 45.71289 | 11.33507 | 8940 ft | 269 kts | 159° |
| 2026-05-06 07:46 | 45.69592 | 11.34544 | 8928 ft | 268 kts | 159° |
| 2026-05-06 07:46 | 45.67871 | 11.35595 | 8937 ft | 268 kts | 158° |
| 2026-05-06 07:46 | 45.66150 | 11.36640 | 8927 ft | 269 kts | 159° |
| 2026-05-06 07:47 | 45.64430 | 11.37702 | 8923 ft | 269 kts | 159° |
| 2026-05-06 07:47 | 45.62711 | 11.38754 | 8923 ft | 268 kts | 159° |
| 2026-05-06 07:47 | 45.60997 | 11.39798 | 8935 ft | 267 kts | 159° |
| 2026-05-06 07:47 | 45.59284 | 11.40837 | 8905 ft | 268 kts | 160° |
| 2026-05-06 07:48 | 45.57560 | 11.41882 | 8927 ft | 270 kts | 160° |
| 2026-05-06 07:48 | 45.55822 | 11.42936 | 8924 ft | 272 kts | 160° |
| 2026-05-06 07:48 | 45.54103 | 11.43980 | 8927 ft | 272 kts | 160° |
| 2026-05-06 07:48 | 45.52357 | 11.45042 | 8908 ft | 273 kts | 160° |
| 2026-05-06 07:49 | 45.50608 | 11.46101 | 8611 ft | 273 kts | 160° |
| 2026-05-06 07:49 | 45.48859 | 11.47163 | 8290 ft | 270 kts | 159° |
| 2026-05-06 07:49 | 45.47137 | 11.48207 | 7911 ft | 269 kts | 159° |
| 2026-05-06 07:49 | 45.45416 | 11.49250 | 7528 ft | 267 kts | 158° |
| 2026-05-06 07:50 | 45.43763 | 11.50446 | 7157 ft | 267 kts | 149° |
| 2026-05-06 07:50 | 45.42314 | 11.52100 | 6785 ft | 268 kts | 135° |
| 2026-05-06 07:50 | 45.41176 | 11.54144 | 6506 ft | 265 kts | 127° |
| 2026-05-06 07:50 | 45.40164 | 11.56323 | 6214 ft | 263 kts | 124° |
| 2026-05-06 07:51 | 45.39178 | 11.58504 | 5963 ft | 261 kts | 124° |
| 2026-05-06 07:51 | 45.38204 | 11.60670 | 5643 ft | 257 kts | 124° |
| 2026-05-06 07:51 | 45.37239 | 11.62807 | 5225 ft | 259 kts | 124° |
| 2026-05-06 07:51 | 45.36258 | 11.64966 | 4815 ft | 259 kts | 124° |
| 2026-05-06 07:52 | 45.35286 | 11.67102 | 4471 ft | 257 kts | 123° |
| 2026-05-06 07:52 | 45.34312 | 11.69238 | 4078 ft | 256 kts | 123° |
| 2026-05-06 07:52 | 45.33343 | 11.71361 | 3710 ft | 256 kts | 123° |
| 2026-05-06 07:52 | 45.32389 | 11.73434 | 3495 ft | 251 kts | 123° |
| 2026-05-06 07:53 | 45.31436 | 11.75510 | 3157 ft | 250 kts | 123° |
| 2026-05-06 07:53 | 45.30494 | 11.77564 | 3012 ft | 248 kts | 123° |
| 2026-05-06 07:53 | 45.29545 | 11.79624 | 2996 ft | 250 kts | 123° |
| 2026-05-06 07:53 | 45.28591 | 11.81701 | 2996 ft | 251 kts | 123° |
| 2026-05-06 07:54 | 45.27639 | 11.83785 | 3000 ft | 251 kts | 123° |
| 2026-05-06 07:54 | 45.27008 | 11.85163 | 3000 ft | 251 kts | 123° |
| 2026-05-06 07:54 | 45.25748 | 11.87909 | 2998 ft | 250 kts | 123° |
| 2026-05-06 07:54 | 45.24796 | 11.89980 | 2998 ft | 251 kts | 123° |
| 2026-05-06 07:55 | 45.23841 | 11.92058 | 2994 ft | 252 kts | 123° |
| 2026-05-06 07:55 | 45.22916 | 11.94169 | 2996 ft | 252 kts | 117° |
| 2026-05-06 07:55 | 45.22476 | 11.95688 | 2995 ft | 252 kts | 106° |
| 2026-05-06 07:55 | 45.22311 | 11.98147 | 2993 ft | 252 kts | 84° |
| 2026-05-06 07:56 | 45.23044 | 12.00371 | 2999 ft | 255 kts | 50° |
| 2026-05-06 07:56 | 45.24392 | 12.02045 | 2994 ft | 259 kts | 40° |
| 2026-05-06 07:56 | 45.25818 | 12.03622 | 2996 ft | 260 kts | 41° |
| 2026-05-06 07:56 | 45.27629 | 12.05829 | 3032 ft | 253 kts | 43° |
| 2026-05-06 07:57 | 45.28507 | 12.06942 | 3008 ft | 248 kts | 44° |
| 2026-05-06 07:57 | 45.29793 | 12.08581 | 3001 ft | 249 kts | 44° |
| 2026-05-06 07:57 | 45.31083 | 12.10234 | 2997 ft | 249 kts | 44° |
| 2026-05-06 07:57 | 45.32305 | 12.11802 | 2994 ft | 228 kts | 44° |
| 2026-05-06 07:58 | 45.33420 | 12.13228 | 2998 ft | 204 kts | 45° |
| 2026-05-06 07:58 | 45.34419 | 12.14504 | 3003 ft | 182 kts | 45° |
| 2026-05-06 07:58 | 45.35292 | 12.15617 | 3021 ft | 156 kts | 46° |
| 2026-05-06 07:58 | 45.36073 | 12.16619 | 2999 ft | 149 kts | 46° |
| 2026-05-06 07:59 | 45.36842 | 12.17615 | 2987 ft | 150 kts | 46° |
| 2026-05-06 07:59 | 45.37614 | 12.18617 | 2993 ft | 150 kts | 46° |
| 2026-05-06 07:59 | 45.38388 | 12.19616 | 2947 ft | 150 kts | 46° |
| 2026-05-06 07:59 | 45.39166 | 12.20615 | 2777 ft | 150 kts | 46° |
| 2026-05-06 08:00 | 45.39940 | 12.21604 | 2556 ft | 150 kts | 46° |
| 2026-05-06 08:00 | 45.40711 | 12.22595 | 2357 ft | 151 kts | 44° |
| 2026-05-06 08:00 | 45.41502 | 12.23607 | 2169 ft | 154 kts | 43° |
| 2026-05-06 08:00 | 45.42317 | 12.24647 | 1889 ft | 155 kts | 46° |
| 2026-05-06 08:01 | 45.43087 | 12.25638 | 1720 ft | 145 kts | 47° |
| 2026-05-06 08:01 | 45.43836 | 12.26602 | 1559 ft | 145 kts | 45° |
| 2026-05-06 08:01 | 45.44584 | 12.27559 | 1363 ft | 144 kts | 48° |
| 2026-05-06 08:01 | 45.45315 | 12.28500 | 1175 ft | 142 kts | 45° |
| 2026-05-06 08:02 | 45.46057 | 12.29452 | 978 ft | 142 kts | 47° |
| 2026-05-06 08:02 | 45.46772 | 12.30372 | 781 ft | 140 kts | 45° |
| 2026-05-06 08:02 | 45.47496 | 12.31302 | 589 ft | 141 kts | 44° |
| 2026-05-06 08:02 | 45.48220 | 12.32235 | 367 ft | 142 kts | 45° |
| 2026-05-06 08:03 | 45.48971 | 12.33213 | 164 ft | 151 kts | 44° |
| 2026-05-06 08:03 | 45.49736 | 12.34205 | 17 ft | 140 kts | 42° |
| 2026-05-06 08:03 | 45.50275 | 12.34889 | 18 ft | 67 kts | 41° |
| 2026-05-06 08:03 | 45.50569 | 12.35070 | 18 ft | 20 kts | 352° |
| 2026-05-06 08:04 | 45.50613 | 12.34930 | 18 ft | 15 kts | 274° |
| 2026-05-06 08:04 | 45.50609 | 12.34792 | 19 ft | 13 kts | 267° |
| 2026-05-06 08:04 | 45.50604 | 12.34680 | 19 ft | 11 kts | 264° |
| 2026-05-06 08:04 | 45.50598 | 12.34576 | 19 ft | 10 kts | 265° |
| 2026-05-06 08:05 | 45.50594 | 12.34494 | 19 ft | 0 kts | 268° |
| 2026-05-06 08:05 | 45.50593 | 12.34448 | 19 ft | 13 kts | 267° |
| 2026-05-06 08:05 | 45.50544 | 12.34362 | 19 ft | 11 kts | 218° |
| 2026-05-06 08:06 | 45.50497 | 12.34323 | 20 ft | 4 kts | 241° |
| 2026-05-06 08:06 | 45.50491 | 12.34279 | 19 ft | 7 kts | 266° |
| 2026-05-06 08:06 | 45.50490 | 12.34217 | 19 ft | 3 kts | 268° |
| 2026-05-06 08:07 | 45.50490 | 12.34211 | 19 ft | 2 kts | 268° |
| 2026-05-06 08:07 | 45.50490 | 12.34208 | 19 ft | 0 kts | 268° |